createdAt,value
2023-03-22T00:01:22.994Z,5.8
2023-03-22T00:03:21.517Z,7.4
2023-03-22T00:05:20.384Z,5.6
2023-03-22T00:07:20.550Z,6.1
2023-03-22T00:09:20.414Z,5.7
2023-03-22T00:11:22.560Z,7.1
2023-03-22T00:13:20.520Z,7.2
2023-03-22T00:15:20.966Z,7.1
2023-03-22T00:17:20.349Z,7
2023-03-22T00:19:20.334Z,6.7
2023-03-22T00:21:20.384Z,5.7
2023-03-22T00:23:21.314Z,5.6
2023-03-22T00:25:20.279Z,4.8
2023-03-22T00:27:20.291Z,6
2023-03-22T00:29:20.259Z,4.4
2023-03-22T00:31:20.220Z,5.9
2023-03-22T00:33:20.324Z,4.9
2023-03-22T00:35:21.422Z,5.3
2023-03-22T00:37:20.086Z,4.9
2023-03-22T00:39:20.029Z,4.7
2023-03-22T00:41:21.811Z,4
2023-03-22T00:43:20.012Z,5.9
2023-03-22T00:45:20.229Z,5
2023-03-22T00:47:19.906Z,4
2023-03-22T00:49:19.997Z,4.6
2023-03-22T00:51:20.002Z,3.9
2023-03-22T00:53:19.906Z,4.7
2023-03-22T00:55:20.214Z,3.8
2023-03-22T00:57:20.057Z,3.9
2023-03-22T00:59:20.368Z,4.1
2023-03-22T01:01:20.129Z,3.7
2023-03-22T01:03:20.105Z,2.9
2023-03-22T01:05:20.549Z,2.7
2023-03-22T01:07:19.629Z,3.7
2023-03-22T01:09:20.154Z,3.3
2023-03-22T01:11:19.963Z,3.3
2023-03-22T01:13:19.693Z,3.1
2023-03-22T01:15:19.816Z,3.3
2023-03-22T01:17:19.590Z,3.8
2023-03-22T01:19:20.532Z,3
2023-03-22T01:21:19.791Z,2.5
2023-03-22T01:23:19.491Z,3
2023-03-22T01:25:19.400Z,2
2023-03-22T01:27:19.413Z,2.7
2023-03-22T01:29:20.452Z,2.2
2023-03-22T01:31:19.418Z,2.9
2023-03-22T01:33:19.270Z,1.9
2023-03-22T01:35:19.880Z,1.9
2023-03-22T01:37:19.751Z,2.1
2023-03-22T01:39:20.611Z,2.1
2023-03-22T01:41:19.781Z,2.5
2023-03-22T01:43:19.388Z,2.1
2023-03-22T01:45:35.160Z,2.8
2023-03-22T01:47:19.017Z,1.6
2023-03-22T01:49:22.867Z,2.3
2023-03-22T01:51:32.359Z,1.6
2023-03-22T01:53:19.203Z,1.6
2023-03-22T01:55:21.842Z,1.4
2023-03-22T01:57:18.825Z,1.5
2023-03-22T01:59:34.369Z,1.6
2023-03-22T02:01:21.354Z,1.7
2023-03-22T02:03:28.574Z,2.3
2023-03-22T02:05:19.634Z,1.5
2023-03-22T02:07:19.930Z,1.4
2023-03-22T02:09:18.508Z,2.1
2023-03-22T02:11:25.716Z,1.9
2023-03-22T02:13:44.911Z,1.4
2023-03-22T02:15:38.138Z,1.5
2023-03-22T02:17:38.155Z,1.6
2023-03-22T02:19:51.030Z,1.2
2023-03-22T02:21:41.023Z,2.5
2023-03-22T02:23:42.640Z,1
2023-03-22T02:25:36.838Z,1.1
2023-03-22T02:27:43.844Z,2.4
2023-03-22T02:29:28.143Z,1.3
2023-03-22T02:31:32.076Z,1.5
2023-03-22T02:33:39.863Z,1.1
2023-03-22T02:35:32.831Z,1.5
2023-03-22T02:37:38.901Z,1.9
2023-03-22T02:39:29.631Z,1.5
2023-03-22T02:41:26.100Z,0.8
2023-03-22T02:43:28.769Z,1.3
2023-03-22T02:45:23.257Z,0.9
2023-03-22T02:47:22.665Z,1.1
2023-03-22T02:49:25.779Z,1.1
2023-03-22T02:51:21.869Z,1.8
2023-03-22T02:53:21.972Z,3.9
2023-03-22T02:55:23.437Z,1.9
2023-03-22T02:57:24.511Z,1.5
2023-03-22T02:59:20.398Z,1.5
2023-03-22T03:01:21.378Z,1.7
2023-03-22T03:03:19.282Z,1.4
2023-03-22T03:05:19.757Z,1.4
2023-03-22T03:07:20.109Z,2
2023-03-22T03:09:19.239Z,1.6
2023-03-22T03:11:17.026Z,1.6
2023-03-22T03:13:17.795Z,1.3
2023-03-22T03:15:18.574Z,1.2
2023-03-22T03:17:32.183Z,2.1
2023-03-22T03:19:22.816Z,1.6
2023-03-22T03:21:27.073Z,1.3
2023-03-22T03:23:25.520Z,2.5
2023-03-22T03:25:22.889Z,1.3
2023-03-22T03:27:22.138Z,3
2023-03-22T03:29:22.080Z,2.1
2023-03-22T03:31:25.902Z,1.6
2023-03-22T03:33:19.770Z,4.3
2023-03-22T03:35:19.761Z,6.2
2023-03-22T03:37:21.144Z,5.4
2023-03-22T03:39:18.301Z,8.5
2023-03-22T03:41:19.150Z,8
2023-03-22T03:43:15.906Z,2.4
2023-03-22T03:45:18.636Z,1.7
2023-03-22T03:47:16.238Z,1.6
2023-03-22T03:49:16.523Z,4.6
2023-03-22T03:51:15.426Z,2.9
2023-03-22T03:53:14.975Z,2.1
2023-03-22T03:55:15.442Z,3.2
2023-03-22T03:57:14.707Z,4.7
2023-03-22T03:59:14.991Z,7.6
2023-03-22T04:01:23.818Z,2.2
2023-03-22T04:03:29.736Z,7.9
2023-03-22T04:05:14.832Z,3.9
2023-03-22T04:07:14.751Z,7.8
2023-03-22T04:09:16.586Z,4
2023-03-22T04:11:14.691Z,3
2023-03-22T04:13:14.572Z,3
2023-03-22T04:15:15.090Z,4.2
2023-03-22T04:17:13.886Z,2.7
2023-03-22T04:19:14.279Z,1.7
2023-03-22T04:21:20.167Z,2.4
2023-03-22T04:23:14.706Z,2.2
2023-03-22T04:25:23.114Z,2.5
2023-03-22T04:27:28.635Z,3.7
2023-03-22T04:29:18.104Z,1.8
2023-03-22T04:31:22.435Z,7.7
2023-03-22T04:33:28.856Z,1.5
2023-03-22T04:35:15.258Z,3.2
2023-03-22T04:37:27.600Z,3
2023-03-22T04:39:14.732Z,2
2023-03-22T04:41:18.532Z,1.3
2023-03-22T04:43:28.817Z,3.3
2023-03-22T04:45:15.934Z,2.1
2023-03-22T04:47:13.828Z,2
2023-03-22T04:49:14.003Z,3.2
2023-03-22T04:51:20.661Z,3.5
2023-03-22T04:53:14.151Z,2.9
2023-03-22T04:55:16.064Z,6.4
2023-03-22T04:57:17.396Z,3.7
2023-03-22T04:59:15.994Z,2.5
2023-03-22T05:01:16.818Z,3
2023-03-22T05:03:16.924Z,2.5
2023-03-22T05:05:14.315Z,5.4
2023-03-22T05:07:17.609Z,1.8
2023-03-22T05:09:14.106Z,1.6
2023-03-22T05:11:17.468Z,2.3
2023-03-22T05:13:17.006Z,3
2023-03-22T05:15:13.611Z,2.9
2023-03-22T05:17:13.588Z,3.3
2023-03-22T05:19:14.643Z,2.7
2023-03-22T05:21:14.941Z,2
2023-03-22T05:23:14.190Z,2.4
2023-03-22T05:25:16.721Z,3.5
2023-03-22T05:27:13.170Z,2
2023-03-22T05:29:27.891Z,1.5
2023-03-22T05:31:18.055Z,4.8
2023-03-22T05:33:16.598Z,2.1
2023-03-22T05:35:15.887Z,1.6
2023-03-22T05:37:23.429Z,2.3
2023-03-22T05:39:12.977Z,4.4
2023-03-22T05:41:13.321Z,2.8
2023-03-22T05:43:16.033Z,1.7
2023-03-22T05:45:13.002Z,1.9
2023-03-22T05:47:21.259Z,2.4
2023-03-22T05:49:12.715Z,3.2
2023-03-22T05:51:14.991Z,2
2023-03-22T05:53:27.367Z,1.1
2023-03-22T05:55:13.792Z,1.8
2023-03-22T05:57:12.674Z,1.8
2023-03-22T05:59:12.283Z,2
2023-03-22T06:01:20.652Z,3.6
2023-03-22T06:03:16.935Z,2.1
2023-03-22T06:05:15.404Z,1.1
2023-03-22T06:07:16.259Z,1.3
2023-03-22T06:09:17.271Z,1.9
2023-03-22T06:11:12.619Z,1.4
2023-03-22T06:13:12.357Z,1.4
2023-03-22T06:15:27.186Z,3
2023-03-22T06:17:14.765Z,2.1
2023-03-22T06:19:12.080Z,2
2023-03-22T06:21:12.115Z,2
2023-03-22T06:23:12.899Z,2.7
2023-03-22T06:25:15.408Z,2.6
2023-03-22T06:27:14.900Z,1.8
2023-03-22T06:29:11.965Z,2.6
2023-03-22T06:31:18.567Z,3.9
2023-03-22T06:33:14.169Z,2.3
2023-03-22T06:35:12.082Z,2.7
2023-03-22T06:37:15.331Z,3.1
2023-03-22T06:39:12.329Z,3.1
2023-03-22T06:41:12.543Z,2.4
2023-03-22T06:43:14.268Z,2
2023-03-22T06:45:12.628Z,4.1
2023-03-22T06:47:20.417Z,2.7
2023-03-22T06:49:11.847Z,1.6
2023-03-22T06:51:11.962Z,3.5
2023-03-22T06:53:12.331Z,2.4
2023-03-22T06:55:57.765Z,2.8
2023-03-22T06:58:52.955Z,2.1
2023-03-22T06:59:11.813Z,2.3
2023-03-22T07:01:11.685Z,4.3
2023-03-22T07:03:19.516Z,2.7
2023-03-22T07:05:11.836Z,2.2
2023-03-22T07:07:11.670Z,2.2
2023-03-22T07:11:31.979Z,2.5
2023-03-22T07:13:12.925Z,4.3
2023-03-22T07:16:06.288Z,1.8
2023-03-22T07:17:12.552Z,1.5
2023-03-22T07:37:11.844Z,2.1
2023-03-22T07:39:15.284Z,2.3
2023-03-22T07:41:26.895Z,3.9
2023-03-22T07:43:26.796Z,2.4
2023-03-22T07:45:19.222Z,2
2023-03-22T07:47:40.457Z,4.1
2023-03-22T07:49:15.260Z,3.3
2023-03-22T07:51:12.337Z,3.4
2023-03-22T07:53:12.614Z,4.9
2023-03-22T07:55:13.610Z,4.9
2023-03-22T07:57:18.737Z,6.1
2023-03-22T07:59:12.063Z,2.6
2023-03-22T08:01:26.900Z,2.5
2023-03-22T08:03:26.160Z,2.3
2023-03-22T08:05:13.993Z,2.6
2023-03-22T08:07:12.033Z,2
2023-03-22T08:09:12.373Z,1.8
2023-03-22T08:11:12.614Z,2
2023-03-22T08:13:12.208Z,3.2
2023-03-22T08:15:12.248Z,1.6
2023-03-22T08:17:12.401Z,2.3
2023-03-22T08:19:12.964Z,3.4
2023-03-22T08:21:12.596Z,9.8
2023-03-22T08:23:26.325Z,1.9
2023-03-22T08:25:13.285Z,2.7
2023-03-22T08:27:18.300Z,2
2023-03-22T08:29:12.678Z,2.6
2023-03-22T08:31:15.393Z,2.2
2023-03-22T08:33:12.670Z,1.9
2023-03-22T08:35:12.656Z,2.2
2023-03-22T08:37:13.241Z,2.4
2023-03-22T08:39:27.095Z,2
2023-03-22T08:41:13.315Z,1.8
2023-03-22T08:43:12.663Z,1.4
2023-03-22T08:45:18.275Z,2
2023-03-22T08:47:14.901Z,2.7
2023-03-22T08:49:21.360Z,1.8
2023-03-22T08:51:24.023Z,3.9
2023-03-22T08:53:13.027Z,2.8
2023-03-22T08:55:27.776Z,2.3
2023-03-22T08:57:27.834Z,1.9
2023-03-22T08:59:25.817Z,2.5
2023-03-22T09:01:21.821Z,2.6
2023-03-22T09:03:13.784Z,5.3
2023-03-22T09:05:13.985Z,3.1
2023-03-22T09:07:13.460Z,3.2
2023-03-22T09:09:14.944Z,3
2023-03-22T09:11:17.615Z,3.7
2023-03-22T09:13:16.715Z,1.8
2023-03-22T09:15:15.126Z,2.2
2023-03-22T09:17:13.886Z,2.8
2023-03-22T09:19:14.287Z,1.8
2023-03-22T09:21:20.288Z,7.1
2023-03-22T09:23:13.632Z,27.6
2023-03-22T09:25:16.305Z,4.3
2023-03-22T09:27:13.860Z,3.7
2023-03-22T09:29:13.950Z,5.2
2023-03-22T09:31:14.429Z,2.5
2023-03-22T09:33:15.248Z,1.9
2023-03-22T09:35:23.564Z,1.4
2023-03-22T09:37:18.531Z,4.3
2023-03-22T09:39:14.575Z,1.9
2023-03-22T09:41:19.439Z,2.1
2023-03-22T09:43:15.833Z,3
2023-03-22T09:45:18.380Z,2
2023-03-22T09:47:17.671Z,1.4
2023-03-22T09:49:18.540Z,3.5
2023-03-22T09:51:28.146Z,3.2
2023-03-22T09:53:16.599Z,2
2023-03-22T09:55:20.468Z,2.3
2023-03-22T09:57:22.676Z,1.8
2023-03-22T09:59:20.257Z,1.6
2023-03-22T10:01:24.249Z,4.5
2023-03-22T10:03:28.362Z,2.8
2023-03-22T10:05:23.889Z,2.1
2023-03-22T10:07:23.054Z,2.7
2023-03-22T10:09:22.188Z,2.6
2023-03-22T10:11:22.429Z,1.9
2023-03-22T10:13:20.959Z,2
2023-03-22T10:15:16.828Z,1.6
2023-03-22T10:17:17.626Z,1.7
2023-03-22T10:19:18.893Z,1.8
2023-03-22T10:21:16.726Z,2.1
2023-03-22T10:23:20.075Z,3.2
2023-03-22T10:25:18.785Z,2.3
2023-03-22T10:27:17.405Z,2.3
2023-03-22T10:29:23.198Z,2.8
2023-03-22T10:31:16.855Z,3.4
2023-03-22T10:33:23.017Z,3
2023-03-22T10:35:16.344Z,2.6
2023-03-22T10:37:19.242Z,4.5
2023-03-22T10:39:26.072Z,3.5
2023-03-22T10:41:18.416Z,1.3
2023-03-22T10:43:22.993Z,2.7
2023-03-22T10:45:15.743Z,1.5
2023-03-22T10:47:17.335Z,1.7
2023-03-22T10:49:24.621Z,1.6
2023-03-22T10:51:25.328Z,2.4
2023-03-22T10:53:25.682Z,4.2
2023-03-22T10:55:16.071Z,1.5
2023-03-22T10:57:15.599Z,4.1
2023-03-22T10:59:46.685Z,3.9
2023-03-22T11:01:26.133Z,2.3
2023-03-22T11:03:36.130Z,1.4
2023-03-22T11:05:22.486Z,2.5
2023-03-22T11:07:28.029Z,1.7
2023-03-22T11:09:17.856Z,1.2
2023-03-22T11:11:19.805Z,1.9
2023-03-22T11:13:19.763Z,2.1
2023-03-22T11:15:24.508Z,3.6
2023-03-22T11:17:21.641Z,3.2
2023-03-22T11:19:22.607Z,1.2
2023-03-22T11:21:18.006Z,2
2023-03-22T11:23:16.451Z,2
2023-03-22T11:25:21.888Z,1.5
2023-03-22T11:27:19.821Z,12.6
2023-03-22T11:29:18.053Z,5.7
2023-03-22T11:31:18.501Z,3.7
2023-03-22T11:33:20.277Z,2.2
2023-03-22T11:35:21.179Z,3.2
2023-03-22T11:37:18.209Z,2.4
2023-03-22T11:39:16.841Z,3.1
2023-03-22T11:41:23.958Z,1.2
2023-03-22T11:43:21.652Z,2.4
2023-03-22T11:45:23.336Z,1.9
2023-03-22T11:47:17.230Z,1.4
2023-03-22T11:49:18.106Z,2.2
2023-03-22T11:51:25.852Z,2.2
2023-03-22T11:53:21.762Z,1.5
2023-03-22T11:55:17.935Z,2.8
2023-03-22T11:57:22.688Z,3.5
2023-03-22T11:59:24.651Z,2.4
2023-03-22T12:01:23.534Z,2
2023-03-22T12:03:22.129Z,1.9
2023-03-22T12:05:22.145Z,2
2023-03-22T12:07:20.294Z,1.2
2023-03-22T12:09:25.176Z,1.6
2023-03-22T12:11:25.519Z,1.1
2023-03-22T12:13:22.942Z,1.2
2023-03-22T12:15:21.577Z,2.2
2023-03-22T12:17:27.490Z,3
2023-03-22T12:19:28.156Z,3.2
2023-03-22T12:21:18.125Z,3
2023-03-22T12:23:21.254Z,4.6
2023-03-22T12:25:22.418Z,1.9
2023-03-22T12:27:23.767Z,1.4
2023-03-22T12:29:19.013Z,0.8
2023-03-22T12:31:22.955Z,6.8
2023-03-22T12:33:23.908Z,2.3
2023-03-22T12:35:24.554Z,3.8
2023-03-22T12:37:23.528Z,3.8
2023-03-22T12:39:25.268Z,1.7
2023-03-22T12:41:25.208Z,0.9
2023-03-22T12:43:31.115Z,1.1
2023-03-22T12:45:23.775Z,1.9
2023-03-22T12:47:24.825Z,2.3
2023-03-22T12:49:27.048Z,3
2023-03-22T12:51:19.102Z,4.7
2023-03-22T12:53:22.326Z,4.3
2023-03-22T12:55:25.181Z,2.4
2023-03-22T12:57:19.622Z,1.8
2023-03-22T12:59:22.518Z,2.6
2023-03-22T13:01:27.175Z,2
2023-03-22T13:03:25.862Z,4.7
2023-03-22T13:05:19.462Z,1.2
2023-03-22T13:07:37.802Z,1.6
2023-03-22T13:09:34.325Z,1.8
2023-03-22T13:11:23.666Z,1.5
2023-03-22T13:13:42.757Z,2.5
2023-03-22T13:15:41.694Z,1.7
2023-03-22T13:17:37.282Z,2.8
2023-03-22T13:19:35.542Z,2.9
2023-03-22T13:21:21.596Z,6.8
2023-03-22T13:23:27.478Z,3.8
2023-03-22T13:25:29.002Z,4
2023-03-22T13:27:20.007Z,2.1
2023-03-22T13:29:22.610Z,3
2023-03-22T13:31:33.544Z,1.8
2023-03-22T13:33:25.261Z,3.5
2023-03-22T13:35:24.442Z,3.3
2023-03-22T13:37:28.609Z,2
2023-03-22T13:39:21.981Z,1.6
2023-03-22T13:41:23.930Z,1.8
2023-03-22T13:43:27.653Z,1.6
2023-03-22T13:45:30.133Z,1
2023-03-22T13:47:34.441Z,1.8
2023-03-22T13:49:45.962Z,1.8
2023-03-22T13:51:28.751Z,2.3
2023-03-22T13:53:29.389Z,3.4
2023-03-22T13:55:37.397Z,2.6
2023-03-22T13:57:50.354Z,5.9
2023-03-22T13:59:27.872Z,4.5
2023-03-22T14:01:28.676Z,1.5
2023-03-22T14:03:30.345Z,3.6
2023-03-22T14:05:23.831Z,3.1
2023-03-22T14:07:24.835Z,4.7
2023-03-22T14:09:28.844Z,2.1
2023-03-22T14:11:28.454Z,2.5
2023-03-22T14:13:29.826Z,3.4
2023-03-22T14:15:24.846Z,2.3
2023-03-22T14:17:33.711Z,8.9
2023-03-22T14:19:24.136Z,6.8
2023-03-22T14:21:29.907Z,4.6
2023-03-22T14:53:27.548Z,4.3
2023-03-22T14:55:24.656Z,14.6
2023-03-22T14:57:28.456Z,9.1
2023-03-22T14:59:22.666Z,24.9
2023-03-22T15:01:25.540Z,16.9
2023-03-22T15:03:26.009Z,18.7
2023-03-22T15:05:25.308Z,11.1
2023-03-22T15:07:22.829Z,9.5
2023-03-22T15:09:23.422Z,7
2023-03-22T15:11:24.498Z,10.9
2023-03-22T15:13:25.162Z,8.3
2023-03-22T15:15:29.428Z,5.5
2023-03-22T15:17:23.228Z,5.6
2023-03-22T15:19:24.160Z,9
2023-03-22T15:21:24.995Z,9.7
2023-03-22T15:23:33.385Z,6.8
2023-03-22T15:25:29.363Z,9.5
2023-03-22T15:27:23.673Z,6.1
2023-03-22T15:29:27.329Z,5.9
2023-03-22T15:31:27.291Z,4.7
2023-03-22T15:33:26.150Z,5.6
2023-03-22T15:35:26.088Z,7.6
2023-03-22T15:37:27.910Z,11.3
2023-03-22T15:39:26.077Z,13.2
2023-03-22T15:41:26.668Z,12.1
2023-03-22T15:43:32.208Z,19
2023-03-22T15:45:23.933Z,13.7
2023-03-22T15:47:24.432Z,10.8
2023-03-22T15:49:33.399Z,14.9
2023-03-22T15:51:28.772Z,9
2023-03-22T15:53:29.314Z,6.6
2023-03-22T15:55:33.444Z,5.8
2023-03-22T15:57:34.932Z,5.8
2023-03-22T15:59:26.663Z,4
2023-03-22T16:01:25.205Z,6.1
2023-03-22T16:03:39.784Z,5.6
2023-03-22T16:05:24.906Z,3.9
2023-03-22T16:07:26.321Z,3.1
2023-03-22T16:09:24.152Z,6.7
2023-03-22T16:11:28.160Z,2.7
2023-03-22T16:13:24.920Z,1.9
2023-03-22T16:15:26.405Z,2.9
2023-03-22T16:17:25.734Z,2.7
2023-03-22T16:19:24.272Z,2.3
2023-03-22T16:21:28.437Z,2.7
2023-03-22T16:23:24.700Z,1.2
2023-03-22T16:25:24.711Z,4.1
2023-03-22T16:27:25.038Z,1.8
2023-03-22T16:29:24.382Z,2.3
2023-03-22T16:31:25.981Z,2.3
2023-03-22T16:33:24.757Z,5.7
2023-03-22T16:35:24.529Z,3.1
2023-03-22T16:37:25.073Z,2.6
2023-03-22T16:39:24.250Z,3.6
2023-03-22T16:41:26.434Z,5.4
2023-03-22T16:43:24.368Z,4.3
2023-03-22T16:45:26.576Z,4.5
2023-03-22T16:47:25.858Z,6.4
2023-03-22T16:49:24.437Z,2.4
2023-03-22T16:51:26.359Z,6.5
2023-03-22T16:53:25.086Z,7.4
2023-03-22T16:55:26.255Z,4.8
2023-03-22T16:57:24.953Z,3.1
2023-03-22T16:59:24.438Z,3.7
2023-03-22T17:01:25.218Z,1.8
2023-03-22T17:03:24.497Z,4.5
2023-03-22T17:05:26.146Z,1.6
2023-03-22T17:07:28.015Z,1.8
2023-03-22T17:09:24.547Z,4.3
2023-03-22T17:11:26.209Z,5.2
2023-03-22T17:13:24.496Z,2.8
2023-03-22T17:15:29.744Z,5.7
2023-03-22T17:17:24.962Z,3.6
2023-03-22T17:19:24.587Z,6.4
2023-03-22T17:21:24.577Z,7.3
2023-03-22T17:23:24.563Z,8.6
2023-03-22T17:25:27.311Z,9.1
2023-03-22T17:27:24.737Z,8.3
2023-03-22T17:29:24.702Z,5.4
2023-03-22T17:31:24.824Z,7.9
2023-03-22T17:33:24.753Z,7.2
2023-03-22T17:35:26.966Z,9.9
2023-03-22T17:37:25.146Z,7.3
2023-03-22T17:39:48.312Z,5
2023-03-22T17:41:24.864Z,3.6
2023-03-22T17:43:24.906Z,6.4
2023-03-22T17:45:28.524Z,2.1
2023-03-22T17:49:25.035Z,5.4
2023-03-22T17:51:25.130Z,3.6
2023-03-22T17:54:07.086Z,3.8
2023-03-22T17:55:47.651Z,1.7
2023-03-22T17:59:25.010Z,3.7
2023-03-22T18:01:25.097Z,3.9
2023-03-22T18:03:25.236Z,1.8
2023-03-22T18:05:33.769Z,2.8
2023-03-22T18:07:25.140Z,2.6
2023-03-22T18:09:25.149Z,3.3
2023-03-22T18:11:25.267Z,3.5
2023-03-22T18:13:25.332Z,4
2023-03-22T18:15:25.222Z,2.7
2023-03-22T18:17:25.614Z,5.8
2023-03-22T18:19:25.528Z,4.1
2023-03-22T18:21:25.346Z,7.6
2023-03-22T18:23:25.215Z,9.2
2023-03-22T18:25:31.865Z,8
2023-03-22T18:27:26.501Z,6.6
2023-03-22T18:29:25.282Z,6.2
2023-03-22T18:31:25.445Z,6.9
2023-03-22T18:33:25.433Z,6.6
2023-03-22T18:35:25.321Z,5.7
2023-03-22T18:37:25.882Z,6.3
2023-03-22T18:41:41.019Z,7.5
2023-03-22T18:43:25.319Z,7
2023-03-22T18:45:32.499Z,11.5
2023-03-22T18:47:25.297Z,14.9
2023-03-22T18:49:25.271Z,9.4
2023-03-22T18:51:31.639Z,7.8
2023-03-22T18:53:25.247Z,7.1
2023-03-22T18:55:29.894Z,7.4
2023-03-22T18:57:25.937Z,6.1
2023-03-22T18:59:25.328Z,6.3
2023-03-22T19:01:25.221Z,8.2
2023-03-22T19:03:25.258Z,5.7
2023-03-22T19:05:25.176Z,6.5
2023-03-22T19:07:48.044Z,7.3
2023-03-22T19:09:25.257Z,5.3
2023-03-22T19:11:25.410Z,7.2
2023-03-22T19:13:25.196Z,5.5
2023-03-22T19:15:44.031Z,4
2023-03-22T19:17:25.221Z,5
2023-03-22T19:19:25.380Z,5.5
2023-03-22T19:21:32.101Z,4.9
2023-03-22T19:23:26.027Z,4.8
2023-03-22T19:25:25.113Z,6.2
2023-03-22T19:27:25.086Z,5.2
2023-03-22T19:29:25.631Z,7.4
2023-03-22T19:31:25.550Z,9
2023-03-22T19:33:39.814Z,11
2023-03-22T19:35:24.988Z,8
2023-03-22T19:37:25.011Z,8.6
2023-03-22T19:39:25.989Z,9.9
2023-03-22T19:43:24.860Z,9.1
2023-03-22T19:45:25.323Z,9.1
2023-03-22T19:47:25.030Z,5.8
2023-03-22T19:49:24.800Z,5
2023-03-22T19:51:24.860Z,4.8
2023-03-22T19:54:12.091Z,6
2023-03-22T19:55:24.731Z,3.8
2023-03-22T19:57:26.211Z,5.3
2023-03-22T19:59:25.848Z,5.8
2023-03-22T20:01:24.644Z,4.2
2023-03-22T20:03:24.666Z,5.1
2023-03-22T20:05:25.674Z,7.1
2023-03-22T20:07:24.776Z,6.5
2023-03-22T20:09:24.641Z,6.2
2023-03-22T20:11:34.972Z,5.4
2023-03-22T20:13:25.361Z,4.8
2023-03-22T20:15:24.455Z,4.4
2023-03-22T20:17:26.344Z,5.4
2023-03-22T20:19:24.317Z,5.8
2023-03-22T20:21:24.665Z,4.9
2023-03-22T20:23:24.743Z,5.4
2023-03-22T20:25:24.284Z,3.9
2023-03-22T20:27:24.290Z,4.5
2023-03-22T20:29:24.281Z,3.8
2023-03-22T20:31:24.223Z,4.3
2023-03-22T20:33:24.673Z,3.8
2023-03-22T20:35:24.147Z,3.4
2023-03-22T20:37:24.191Z,4
2023-03-22T20:39:24.381Z,4.5
2023-03-22T20:41:24.073Z,5.3
2023-03-22T20:43:24.274Z,4.8
2023-03-22T20:45:24.034Z,6
2023-03-22T20:47:24.002Z,4.3
2023-03-22T20:49:23.998Z,3.2
2023-03-22T20:51:23.927Z,4.4
2023-03-22T20:53:23.904Z,5.1
2023-03-22T20:55:23.981Z,4.5
2023-03-22T20:57:23.908Z,5.7
2023-03-22T20:59:23.758Z,5.8
2023-03-22T21:01:23.626Z,6.1
2023-03-22T21:03:23.718Z,7.1
2023-03-22T21:05:23.981Z,4.3
2023-03-22T21:07:23.546Z,5.7
2023-03-22T21:09:23.514Z,6.9
2023-03-22T21:11:23.603Z,7.6
2023-03-22T21:13:23.492Z,5.4
2023-03-22T21:15:23.765Z,5.9
2023-03-22T21:17:23.256Z,7
2023-03-22T21:19:23.315Z,5.1
2023-03-22T21:21:23.215Z,5.3
2023-03-22T21:23:23.579Z,9.3
2023-03-22T21:25:23.065Z,7.3
2023-03-22T21:27:23.341Z,8.2
2023-03-22T21:29:23.005Z,6.4
2023-03-22T21:31:22.995Z,6.5
2023-03-22T21:33:23.633Z,5.6
2023-03-22T21:35:22.739Z,6.7
2023-03-22T21:37:23.149Z,7.5
2023-03-22T21:39:22.693Z,6.7
2023-03-22T21:41:24.212Z,7.4
2023-03-22T21:43:23.748Z,5.4
2023-03-22T21:45:24.587Z,7.2
2023-03-22T21:47:22.460Z,6.9
2023-03-22T21:49:22.469Z,5.3
2023-03-22T21:51:22.329Z,6.2
2023-03-22T21:53:24.105Z,7.3
2023-03-22T21:55:22.262Z,9.4
2023-03-22T21:57:23.115Z,5.9
2023-03-22T21:59:22.567Z,6.5
2023-03-22T22:01:23.390Z,7.4
2023-03-22T22:03:22.026Z,7
2023-03-22T22:05:22.496Z,6.9
2023-03-22T22:07:22.117Z,6.2
2023-03-22T22:09:21.891Z,6.1
2023-03-22T22:11:21.794Z,6.9
2023-03-22T22:13:22.744Z,5.4
2023-03-22T22:15:22.894Z,5.2
2023-03-22T22:17:21.724Z,4.2
2023-03-22T22:19:21.638Z,4.1
2023-03-22T22:21:21.586Z,5.7
2023-03-22T22:23:21.601Z,2.9
2023-03-22T22:25:21.461Z,4.2
2023-03-22T22:27:21.360Z,3.9
2023-03-22T22:29:21.421Z,3.5
2023-03-22T22:31:23.171Z,5.6
2023-03-22T22:33:21.778Z,5.3
2023-03-22T22:35:21.326Z,3.6
2023-03-22T22:37:21.314Z,5.1
2023-03-22T22:39:22.339Z,3.5
2023-03-22T22:41:22.017Z,5.5
2023-03-22T22:43:21.318Z,4.5
2023-03-22T22:45:21.166Z,4.6
2023-03-22T22:47:21.757Z,7
2023-03-22T22:49:21.078Z,5.9
2023-03-22T22:51:23.180Z,9
2023-03-22T22:53:20.998Z,7.6
2023-03-22T22:55:20.901Z,10.5
2023-03-22T22:57:20.860Z,8.5
2023-03-22T22:59:21.547Z,7
2023-03-22T23:01:20.936Z,4.9
2023-03-22T23:03:20.902Z,5.6
2023-03-22T23:05:20.756Z,5
2023-03-22T23:07:20.747Z,5.1
2023-03-22T23:09:22.419Z,4.4
2023-03-22T23:11:22.817Z,6.5
2023-03-22T23:13:21.301Z,4.4
2023-03-22T23:15:26.987Z,3.2
2023-03-22T23:17:21.570Z,3.8
2023-03-22T23:19:20.510Z,3.4
2023-03-22T23:21:21.944Z,5.4
2023-03-22T23:23:20.427Z,4
2023-03-22T23:25:20.881Z,3.9
2023-03-22T23:27:20.458Z,3.8
2023-03-22T23:29:20.377Z,5
2023-03-22T23:31:21.125Z,4.3
2023-03-22T23:33:20.438Z,3.3
2023-03-22T23:35:20.342Z,5.9
2023-03-22T23:37:23.286Z,5.8
2023-03-22T23:39:22.005Z,5.5
2023-03-22T23:41:22.058Z,4.9
2023-03-22T23:43:20.274Z,3.2
2023-03-22T23:45:20.411Z,3.8
2023-03-22T23:47:20.769Z,3.3
2023-03-22T23:49:20.244Z,3.9
2023-03-22T23:51:20.447Z,3.9
2023-03-22T23:53:20.258Z,6.8
2023-03-22T23:55:20.184Z,4.3
2023-03-22T23:57:20.273Z,3.3
2023-03-22T23:59:21.229Z,3.7
